アミルカル・カブラル国際空港の過去48時間の天気

アミルカル・カブラル国際空港 (Sal)

現在時刻: 9/16 02:07 -01 (9/16 03:07 UTC) 以下の時間は現地時間です。

過去48時間のMETAR気象情報
時間 風向 風速(m/s) 視程 気温(℃) 湿度(%) 気圧(hPa) 天気現象
16 02:00 東北東 4 9000m 27 84 1013
16 01:00 東北東 5 9000m 27 84 1013
16 00:00 北東 5 9000m 27 84 1014
15 23:00 北東 4 10km以上 27 84 1014
15 22:00 東北東 4 10km以上 27 84 1014
15 21:00 東北東 4 10km以上 27 84 1014
15 20:00 東北東 5 10km以上 27 84 1013
15 19:00 東北東 5 10km以上 28 79 1012
15 18:00 東北東 5 10km以上 29 74 1012
15 17:00 東北東 5 10km以上 30 70 1011
15 16:00 東北東 5 10km以上 31 66 1011
15 15:00 北東 5 10km以上 32 59 1011
15 14:00 東北東 4 10km以上 32 59 1012
15 13:00 4 10km以上 31 62 1013
15 12:00 5 10km以上 31 62 1014
15 11:00 4 10km以上 30 66 1014
15 09:00 東北東 5 10km以上 29 74 1014
15 08:00 北東 4 10km以上 28 79 1012
15 07:00 東北東 5 9000m 26 84 1013
15 06:00 東北東 6 10km以上 26 84 1012
15 05:00 東北東 7 9000m 25 89 1012 弱い霧雨
15 04:00 東北東 6 9000m 26 84 1012
15 03:00 北東 3 10km以上 26 84 1012
15 02:00 北東 3 10km以上 26 84 1013
15 01:00 東北東 3 10km以上 26 84 1013
15 00:00 東北東 4 10km以上 26 84 1014
14 23:00 東北東 4 10km以上 26 84 1014
14 22:00 東北東 5 10km以上 26 84 1014
14 21:00 北東 6 10km以上 26 79 1013
14 20:00 北東 5 10km以上 26 79 1013
14 19:00 北東 7 10km以上 27 74 1012
GVAC 160300Z 07008KT 9000 SCT013 BKN090 27/24 Q1013 NOSIG
GVAC 160200Z 06010KT 9000 FEW013 BKN090 27/24 Q1013 NOSIG
GVAC 160100Z 05009KT 9000 FEW013 BKN090 27/24 Q1014 NOSIG
GVAC 160000Z 05007KT 9999 FEW013 BKN100 27/24 Q1014 NOSIG
GVAC 152300Z 06007KT 9999 SCT014 BKN100 27/24 Q1014 NOSIG
GVAC 152200Z 07008KT 9999 BKN014 BKN100 27/24 Q1014 NOSIG
GVAC 152100Z 07010KT 9999 SCT014 SCT100 27/24 Q1013 NOSIG
GVAC 152000Z 07009KT 9999 SCT014 BKN100 28/24 Q1012 NOSIG
GVAC 151900Z 06009KT 9999 SCT014 BKN100 29/24 Q1012 NOSIG
GVAC 151800Z 06009KT 020V080 9999 SCT014 BKN100 30/24 Q1011 NOSIG
GVAC 151700Z 07009KT 040V100 9999 SCT013 SCT016 BKN100 31/24 Q1011 NOSIG
GVAC 151600Z 05010KT 9999 SCT013 BKN100 32/23 Q1011 NOSIG
GVAC 151500Z 07007KT 9999 SCT013 SCT016 BKN200 32/23 Q1012 NOSIG
GVAC 151400Z 09007KT 9999 SCT013 BKN100 BKN200 31/23 Q1013 NOSIG
GVAC 151300Z 08010KT 9999 BKN013 SCT200 31/23 Q1014 NOSIG
GVAC 151200Z 09008KT 9999 SCT013 SCT200 30/23 Q1014 NOSIG
GVAC 151000Z 06009KT 9999 BKN013 SCT100 29/24 Q1014 NOSIG
GVAC 150900Z 05007KT 9999 BKN013 SCT100 28/24 Q1012 NOSIG
GVAC 150800Z 07009KT 9000 SCT013 26/23 Q1013 NOSIG
GVAC 150700Z 07011KT 9999 SCT013 26/23 Q1012 NOSIG
GVAC 150600Z 07013KT 9000 -DZ BKN016 25/23 Q1012 NOSIG
GVAC 150500Z 07012KT 9000 SCT014 26/23 Q1012 NOSIG
GVAC 150400Z 05006KT 9999 FEW014 26/23 Q1012 NOSIG
GVAC 150300Z 05006KT 9999 FEW014 26/23 Q1013 NOSIG
GVAC 150200Z 06006KT 9999 BKN014 26/23 Q1013 NOSIG
GVAC 150100Z 06007KT 9999 SCT014 26/23 Q1014 NOSIG
GVAC 150000Z 06008KT 9999 BKN014 26/23 Q1014 NOSIG
GVAC 142300Z 06010KT 9999 BKN014 26/23 Q1014 NOSIG
GVAC 142200Z 05011KT 9999 BKN014 26/22 Q1013 NOSIG
GVAC 142100Z 05010KT 9999 BKN014 26/22 Q1013 NOSIG
GVAC 142000Z 05013KT 9999 BKN014 27/22 Q1012 NOSIG